createdAt,value
2019-06-08T00:00:27.525Z,3.92
2019-06-08T00:02:58.394Z,3.02
2019-06-08T00:05:28.013Z,2.67
2019-06-08T00:07:57.606Z,3.20
2019-06-08T00:10:27.856Z,3.10
2019-06-08T00:12:57.739Z,3.45
2019-06-08T00:15:27.659Z,2.58
2019-06-08T00:17:59.326Z,2.47
2019-06-08T00:20:28.667Z,2.65
2019-06-08T00:22:58.259Z,19.10
2019-06-08T00:25:27.932Z,2.35
2019-06-08T00:27:57.862Z,2.25
2019-06-08T00:30:28.726Z,3.42
2019-06-08T00:32:58.524Z,4.55
2019-06-08T00:35:28.638Z,2.50
2019-06-08T00:37:58.309Z,8.23
2019-06-08T00:40:27.880Z,3.27
2019-06-08T00:42:58.374Z,16.32
2019-06-08T00:45:27.965Z,7.40
2019-06-08T00:47:57.638Z,3.10
2019-06-08T00:50:27.269Z,2.58
2019-06-08T00:52:56.858Z,5.42
2019-06-08T00:55:26.455Z,6.20
2019-06-08T00:57:56.141Z,6.35
2019-06-08T01:00:26.685Z,6.95
2019-06-08T01:02:56.798Z,3.15
2019-06-08T01:05:26.423Z,3.15
2019-06-08T01:07:56.013Z,3.62
2019-06-08T01:10:25.950Z,5.03
2019-06-08T01:12:55.548Z,3.42
2019-06-08T01:15:32.233Z,2.75
2019-06-08T01:18:02.981Z,3.25
2019-06-08T01:20:29.472Z,3.17
2019-06-08T01:22:59.158Z,4.92
2019-06-08T01:25:30.171Z,3.25
2019-06-08T01:28:00.033Z,3.10
2019-06-08T01:30:48.966Z,2.70
2019-06-08T01:33:18.850Z,3.70
2019-06-08T01:35:48.774Z,7.15
2019-06-08T01:38:18.371Z,3.02
2019-06-08T01:40:47.986Z,2.40
2019-06-08T01:43:17.647Z,6.80
2019-06-08T01:45:47.318Z,9.13
2019-06-08T01:48:20.383Z,3.42
2019-06-08T01:53:18.611Z,2.60
2019-06-08T01:55:48.291Z,2.00
2019-06-08T01:58:18.725Z,2.00
2019-06-08T02:00:48.984Z,2.02
2019-06-08T02:03:18.655Z,8.53
2019-06-08T02:05:48.287Z,2.80
2019-06-08T02:08:17.891Z,2.77
2019-06-08T02:10:47.469Z,5.37
2019-06-08T02:13:17.068Z,2.02
2019-06-08T02:15:46.746Z,4.37
2019-06-08T02:18:16.662Z,2.77
2019-06-08T02:20:46.346Z,3.50
2019-06-08T02:23:15.927Z,2.83
2019-06-08T02:25:45.524Z,4.33
2019-06-08T02:28:15.114Z,1.98
2019-06-08T02:30:45.102Z,2.25
2019-06-08T02:33:15.022Z,5.30
2019-06-08T02:35:44.622Z,4.20
2019-06-08T02:38:14.220Z,1.37
2019-06-08T02:40:43.841Z,2.20
2019-06-08T02:43:13.913Z,3.55
2019-06-08T02:45:43.566Z,0.90
2019-06-08T02:48:13.184Z,1.12
2019-06-08T02:50:57.243Z,2.92
2019-06-08T02:53:29.479Z,1.70
2019-06-08T02:55:59.800Z,3.42
2019-06-08T02:58:31.125Z,2.10
2019-06-08T03:01:02.483Z,1.98
2019-06-08T03:03:35.984Z,2.62
2019-06-08T03:06:06.311Z,3.35
2019-06-08T03:08:39.217Z,1.95
2019-06-08T03:11:09.192Z,3.67
2019-06-08T03:13:42.357Z,3.50
2019-06-08T03:16:11.291Z,1.37
2019-06-08T03:18:42.653Z,2.30
2019-06-08T03:21:12.650Z,2.90
2019-06-08T03:23:43.484Z,3.25
2019-06-08T03:26:13.455Z,5.40
2019-06-08T03:28:44.385Z,2.20
2019-06-08T03:31:14.671Z,2.10
2019-06-08T03:33:53.807Z,1.52
2019-06-08T03:36:15.609Z,4.87
2019-06-08T03:38:45.199Z,2.37
2019-06-08T03:41:14.790Z,4.42
2019-06-08T03:43:44.407Z,5.47
2019-06-08T03:46:13.999Z,1.20
2019-06-08T03:48:45.742Z,6.17
2019-06-08T03:51:14.922Z,2.98
2019-06-08T03:54:19.783Z,3.40
2019-06-08T04:02:37.768Z,4.33
2019-06-08T04:05:08.055Z,1.72
2019-06-08T04:07:39.856Z,0.90
2019-06-08T04:10:09.998Z,2.25
2019-06-08T04:12:40.020Z,5.65
2019-06-08T04:15:10.953Z,1.15
2019-06-08T04:17:42.197Z,3.58
2019-06-08T04:20:13.575Z,5.97
2019-06-08T04:23:02.533Z,2.20
2019-06-08T04:25:34.945Z,1.15
2019-06-08T04:28:06.694Z,6.60
2019-06-08T04:30:36.329Z,2.67
2019-06-08T04:33:05.927Z,2.60
2019-06-08T04:35:35.599Z,1.50
2019-06-08T04:38:05.971Z,3.37
2019-06-08T04:40:35.720Z,3.75
2019-06-08T04:43:06.125Z,1.17
2019-06-08T04:45:35.725Z,2.77
2019-06-08T04:48:09.505Z,2.27
2019-06-08T04:50:38.670Z,5.08
2019-06-08T04:53:08.470Z,2.25
2019-06-08T04:55:38.838Z,4.87
2019-06-08T04:58:08.540Z,3.42
2019-06-08T05:00:39.064Z,2.92
2019-06-08T05:03:09.331Z,7.40
2019-06-08T05:05:39.253Z,5.00
2019-06-08T05:08:09.316Z,2.02
2019-06-08T05:10:39.291Z,1.80
2019-06-08T05:13:09.293Z,3.75
2019-06-08T05:15:39.171Z,2.42
2019-06-08T05:18:08.953Z,2.47
2019-06-08T05:20:41.360Z,6.08
2019-06-08T05:23:09.970Z,3.00
2019-06-08T05:25:39.576Z,2.95
2019-06-08T05:28:09.159Z,3.75
2019-06-08T05:30:39.273Z,6.67
2019-06-08T05:33:09.114Z,3.83
2019-06-08T05:35:39.431Z,4.33
2019-06-08T05:38:09.088Z,5.87
2019-06-08T05:40:39.460Z,2.08
2019-06-08T05:43:09.144Z,4.08
2019-06-08T05:45:39.592Z,4.00
2019-06-08T05:48:09.689Z,4.05
2019-06-08T05:50:54.930Z,2.75
2019-06-08T05:53:10.732Z,2.17
2019-06-08T05:55:41.646Z,4.08
2019-06-08T05:58:11.251Z,4.47
2019-06-08T06:00:42.156Z,5.12
2019-06-08T06:03:11.843Z,3.08
2019-06-08T06:05:42.424Z,3.33
2019-06-08T06:08:18.824Z,4.28
2019-06-08T06:10:44.780Z,4.58
2019-06-08T06:13:14.904Z,2.47
2019-06-08T06:15:45.443Z,1.95
2019-06-08T06:18:15.116Z,3.47
2019-06-08T06:20:45.504Z,5.08
2019-06-08T06:23:15.211Z,3.90
2019-06-08T06:25:45.399Z,4.30
2019-06-08T06:28:15.531Z,3.25
2019-06-08T06:30:48.329Z,3.20
2019-06-08T06:33:18.389Z,4.97
2019-06-08T06:35:48.254Z,3.08
2019-06-08T06:38:18.299Z,1.60
2019-06-08T06:40:48.085Z,2.37
2019-06-08T06:43:17.709Z,4.12
2019-06-08T06:45:48.061Z,3.75
2019-06-08T06:48:18.475Z,4.92
2019-06-08T06:50:48.375Z,3.12
2019-06-08T06:53:18.057Z,3.40
2019-06-08T06:55:49.196Z,5.03
2019-06-08T06:58:18.849Z,6.80
2019-06-08T07:00:49.429Z,3.20
2019-06-08T07:03:19.867Z,3.77
2019-06-08T07:05:49.950Z,3.60
2019-06-08T07:08:19.741Z,2.35
2019-06-08T07:10:49.328Z,2.52
2019-06-08T07:13:19.265Z,2.25
2019-06-08T07:15:52.678Z,3.58
2019-06-08T07:18:20.601Z,2.40
2019-06-08T07:20:50.294Z,4.20
2019-06-08T07:23:20.267Z,3.65
2019-06-08T07:25:50.445Z,4.65
2019-06-08T07:28:20.223Z,3.10
2019-06-08T07:30:50.645Z,2.17
2019-06-08T07:33:20.371Z,3.45
2019-06-08T07:35:51.413Z,2.55
2019-06-08T07:38:21.048Z,3.92
2019-06-08T07:40:51.926Z,5.15
2019-06-08T07:43:22.024Z,3.47
2019-06-08T07:45:51.939Z,4.72
2019-06-08T07:48:21.602Z,3.52
2019-06-08T07:50:52.242Z,3.65
2019-06-08T07:53:22.048Z,1.70
2019-06-08T07:55:51.700Z,6.37
2019-06-08T07:58:21.319Z,3.22
2019-06-08T08:00:53.892Z,2.72
2019-06-08T08:03:22.533Z,5.10
2019-06-08T08:05:53.553Z,3.12
2019-06-08T08:08:23.484Z,6.90
2019-06-08T08:10:53.082Z,4.70
2019-06-08T08:13:24.054Z,3.45
2019-06-08T08:15:57.217Z,4.17
2019-06-08T08:18:25.099Z,3.98
2019-06-08T08:20:55.871Z,4.85
2019-06-08T08:23:27.436Z,4.37
2019-06-08T08:26:00.297Z,2.42
2019-06-08T08:28:28.478Z,6.22
2019-06-08T08:31:00.339Z,3.22
2019-06-08T08:33:29.497Z,5.10
2019-06-08T08:36:01.750Z,8.25
2019-06-08T08:38:30.568Z,6.40
2019-06-08T08:41:07.328Z,5.15
2019-06-08T08:43:31.563Z,7.58
2019-06-08T08:46:02.020Z,4.47
2019-06-08T08:48:31.898Z,3.42
2019-06-08T08:51:03.647Z,3.72
2019-06-08T08:53:32.951Z,2.95
2019-06-08T08:56:02.699Z,6.08
2019-06-08T08:58:32.449Z,4.08
2019-06-08T09:01:03.602Z,6.37
2019-06-08T09:03:33.939Z,6.15
2019-06-08T09:06:04.156Z,4.60
2019-06-08T09:08:34.014Z,4.20
2019-06-08T09:11:04.040Z,6.10
2019-06-08T09:13:34.036Z,5.78
2019-06-08T09:16:04.774Z,3.40
2019-06-08T09:18:34.688Z,4.83
2019-06-08T09:21:04.545Z,5.62
2019-06-08T09:23:34.369Z,9.33
2019-06-08T09:26:10.033Z,5.12
2019-06-08T09:28:38.681Z,7.25
2019-06-08T09:31:11.624Z,7.75
2019-06-08T09:33:39.990Z,5.70
2019-06-08T09:36:09.754Z,8.05
2019-06-08T09:38:39.760Z,4.92
2019-06-08T09:41:10.988Z,6.83
2019-06-08T09:43:40.665Z,8.08
2019-06-08T09:46:10.443Z,7.05
2019-06-08T09:48:40.352Z,7.12
2019-06-08T09:51:09.953Z,6.78
2019-06-08T09:53:41.618Z,5.45
2019-06-08T09:56:13.368Z,8.03
2019-06-08T09:58:42.969Z,8.00
2019-06-08T10:01:12.915Z,6.03
2019-06-08T10:03:42.512Z,6.60
2019-06-08T10:06:12.831Z,10.80
2019-06-08T10:08:42.504Z,9.00
2019-06-08T10:11:12.871Z,5.28
2019-06-08T10:13:43.490Z,8.88
2019-06-08T10:16:18.576Z,7.65
2019-06-08T10:18:51.409Z,6.47
2019-06-08T10:21:21.143Z,6.60
2019-06-08T10:23:50.917Z,9.03
2019-06-08T10:26:20.557Z,11.05
2019-06-08T10:28:51.312Z,6.72
2019-06-08T10:31:35.728Z,6.95
2019-06-08T10:33:52.394Z,7.12
2019-06-08T10:36:21.980Z,7.20
2019-06-08T10:38:51.608Z,6.28
2019-06-08T10:41:21.842Z,7.37
2019-06-08T10:43:51.613Z,8.58
2019-06-08T10:46:21.207Z,7.80
2019-06-08T10:48:50.800Z,9.35
2019-06-08T10:51:20.452Z,6.12
2019-06-08T10:53:53.805Z,10.43
2019-06-08T10:56:23.597Z,6.92
2019-06-08T10:58:53.200Z,6.53
2019-06-08T11:01:22.796Z,8.28
2019-06-08T11:03:52.430Z,10.40
2019-06-08T11:06:22.120Z,10.38
2019-06-08T11:08:51.708Z,6.92
2019-06-08T11:11:21.375Z,9.08
2019-06-08T11:13:52.566Z,12.15
2019-06-08T11:16:22.504Z,9.95
2019-06-08T11:18:52.400Z,6.40
2019-06-08T11:21:22.042Z,8.85
2019-06-08T11:24:10.852Z,9.83
2019-06-08T11:26:28.940Z,5.90
2019-06-08T11:29:01.071Z,7.28
2019-06-08T11:31:32.241Z,8.13
2019-06-08T11:34:02.663Z,4.97
2019-06-08T11:36:33.371Z,5.03
2019-06-08T11:39:04.226Z,7.97
2019-06-08T11:41:33.963Z,11.08
2019-06-08T11:44:05.096Z,7.97
2019-06-08T11:46:35.200Z,10.78
2019-06-08T11:49:10.837Z,6.47
2019-06-08T11:54:25.627Z,10.45
2019-06-08T11:56:40.525Z,15.05
2019-06-08T11:59:14.316Z,12.43
2019-06-08T12:01:43.579Z,17.85
2019-06-08T12:04:13.319Z,11.30
2019-06-08T12:06:43.043Z,10.30
2019-06-08T12:09:14.000Z,13.75
2019-06-08T12:11:44.246Z,13.45
2019-06-08T12:14:17.708Z,14.23
2019-06-08T12:16:49.793Z,11.05
2019-06-08T12:19:20.900Z,10.43
2019-06-08T12:21:51.341Z,15.20
2019-06-08T12:24:21.335Z,6.10
2019-06-08T12:26:58.232Z,12.63
2019-06-08T12:29:22.343Z,12.85
2019-06-08T12:31:51.930Z,10.45
2019-06-08T12:34:21.610Z,11.68
2019-06-08T12:36:51.215Z,9.13
2019-06-08T12:39:21.475Z,12.15
2019-06-08T12:41:53.959Z,9.10
2019-06-08T12:44:26.197Z,9.20
2019-06-08T12:46:55.084Z,12.90
2019-06-08T12:49:24.677Z,15.08
2019-06-08T12:51:58.143Z,12.93
2019-06-08T12:54:29.724Z,13.20
2019-06-08T12:57:00.830Z,7.45
2019-06-08T12:59:31.234Z,6.70
2019-06-08T13:02:05.120Z,10.43
2019-06-08T13:04:38.379Z,11.97
2019-06-08T13:07:10.072Z,8.63
2019-06-08T13:09:40.813Z,8.83
2019-06-08T13:12:11.440Z,7.62
2019-06-08T13:14:41.116Z,9.23
2019-06-08T13:17:11.887Z,9.45
2019-06-08T13:19:42.226Z,7.97
2019-06-08T13:22:12.793Z,6.05
2019-06-08T13:24:42.438Z,15.90
2019-06-08T13:27:14.924Z,9.63
2019-06-08T13:29:43.943Z,11.78
2019-06-08T13:32:13.861Z,6.62
2019-06-08T13:34:43.863Z,10.40
2019-06-08T13:37:14.407Z,14.23
2019-06-08T13:39:44.506Z,10.30
2019-06-08T13:42:15.223Z,6.45
2019-06-08T13:44:47.420Z,6.47
2019-06-08T13:47:18.921Z,9.58
2019-06-08T13:49:48.202Z,8.43
2019-06-08T13:52:20.343Z,6.45
2019-06-08T13:54:49.138Z,5.90
2019-06-08T13:57:21.874Z,9.38
2019-06-08T13:59:51.680Z,8.70
2019-06-08T14:02:26.371Z,8.08
2019-06-08T14:04:54.569Z,9.50
2019-06-08T14:07:28.474Z,9.10
2019-06-08T14:09:58.158Z,5.67
2019-06-08T14:12:30.488Z,10.40
2019-06-08T14:14:58.726Z,10.85
2019-06-08T14:17:28.343Z,9.50
2019-06-08T14:19:59.346Z,6.17
2019-06-08T14:22:30.411Z,7.50
2019-06-08T14:25:00.187Z,11.65
2019-06-08T14:27:33.250Z,10.53
2019-06-08T14:30:01.357Z,11.88
2019-06-08T14:32:33.555Z,8.80
2019-06-08T14:35:04.951Z,14.65
2019-06-08T14:37:34.646Z,8.85
2019-06-08T14:40:08.280Z,6.90
2019-06-08T14:42:38.498Z,6.15
2019-06-08T14:45:10.849Z,8.10
2019-06-08T14:47:42.035Z,8.53
2019-06-08T14:50:13.435Z,7.50
2019-06-08T14:52:43.077Z,9.83
2019-06-08T14:55:13.281Z,6.62
2019-06-08T14:57:42.988Z,8.08
2019-06-08T15:00:20.516Z,5.62
2019-06-08T15:02:50.201Z,6.22
2019-06-08T15:05:21.445Z,10.05
2019-06-08T15:07:51.518Z,6.28
2019-06-08T15:10:21.904Z,10.50
2019-06-08T15:12:53.645Z,6.22
2019-06-08T15:15:23.640Z,9.25
2019-06-08T15:17:53.622Z,8.15
2019-06-08T15:20:24.030Z,7.50
2019-06-08T15:22:54.060Z,9.73
2019-06-08T15:25:24.710Z,7.72
2019-06-08T15:27:54.702Z,5.70
2019-06-08T15:30:25.133Z,11.90
2019-06-08T15:32:55.134Z,12.07
2019-06-08T15:35:25.163Z,6.33
2019-06-08T15:37:54.832Z,7.72
2019-06-08T15:40:25.668Z,10.05
2019-06-08T15:42:55.531Z,6.05
2019-06-08T15:45:26.280Z,9.03
2019-06-08T15:47:58.750Z,7.50
2019-06-08T15:50:28.456Z,6.87
2019-06-08T15:53:00.176Z,7.17
2019-06-08T15:55:31.893Z,5.50
2019-06-08T15:58:00.886Z,6.85
2019-06-08T16:00:32.787Z,12.00
2019-06-08T16:03:02.174Z,5.33
2019-06-08T16:05:31.793Z,10.13
2019-06-08T16:08:02.512Z,12.58
2019-06-08T16:10:32.370Z,8.13
2019-06-08T16:13:02.085Z,9.60
2019-06-08T16:15:33.077Z,7.47
2019-06-08T16:18:04.904Z,10.70
2019-06-08T16:20:35.671Z,7.37
2019-06-08T16:23:05.479Z,8.78
2019-06-08T16:25:38.682Z,9.35
2019-06-08T16:28:06.490Z,5.65
2019-06-08T16:30:36.110Z,9.65
2019-06-08T16:33:05.869Z,9.20
2019-06-08T16:35:35.793Z,7.33
2019-06-08T16:38:05.541Z,7.67
2019-06-08T16:40:36.346Z,7.15
2019-06-08T16:43:06.548Z,7.95
2019-06-08T16:45:36.193Z,8.95
2019-06-08T16:48:05.863Z,7.70
2019-06-08T16:50:36.359Z,8.10
2019-06-08T16:53:06.183Z,9.20
2019-06-08T16:55:36.162Z,7.35
2019-06-08T16:58:05.956Z,6.80
2019-06-08T17:00:39.028Z,7.60
2019-06-08T17:03:07.279Z,7.05
2019-06-08T17:05:38.577Z,5.95
2019-06-08T17:08:08.191Z,8.08
2019-06-08T17:10:38.686Z,10.23
2019-06-08T17:13:12.247Z,5.42
2019-06-08T17:15:43.416Z,8.90
2019-06-08T17:18:14.336Z,8.23
2019-06-08T17:20:45.447Z,7.37
2019-06-08T17:23:17.160Z,7.70
2019-06-08T17:25:46.702Z,8.00
2019-06-08T17:28:16.305Z,8.75
2019-06-08T17:30:45.906Z,6.10
2019-06-08T17:33:15.495Z,5.67
2019-06-08T17:35:45.448Z,5.10
2019-06-08T17:38:15.111Z,9.88
2019-06-08T17:40:44.710Z,7.85
2019-06-08T17:43:14.304Z,11.48
2019-06-08T17:45:43.977Z,7.08
2019-06-08T17:48:13.598Z,8.80
2019-06-08T17:50:46.010Z,5.25
2019-06-08T17:53:15.714Z,6.30
2019-06-08T17:55:45.372Z,7.30
2019-06-08T17:58:14.957Z,7.08
2019-06-08T18:00:45.810Z,9.65
2019-06-08T18:03:17.293Z,8.33
2019-06-08T18:05:48.622Z,5.95
2019-06-08T18:08:20.090Z,10.15
2019-06-08T18:10:49.683Z,9.00
2019-06-08T18:13:19.270Z,5.37
2019-06-08T18:15:48.930Z,8.20
2019-06-08T18:18:18.664Z,6.80
2019-06-08T18:20:52.103Z,10.43
2019-06-08T18:23:20.821Z,10.18
2019-06-08T18:26:09.752Z,9.90
2019-06-08T18:28:42.274Z,5.75
2019-06-08T18:31:13.931Z,9.55
2019-06-08T18:33:45.329Z,8.43
2019-06-08T18:36:16.974Z,8.88
2019-06-08T18:38:48.534Z,9.60
2019-06-08T18:41:17.922Z,8.85
2019-06-08T18:43:49.520Z,7.42
2019-06-08T18:46:18.833Z,5.72
2019-06-08T18:48:49.310Z,9.28
2019-06-08T18:51:19.197Z,8.10
2019-06-08T18:54:05.990Z,6.75
2019-06-08T18:56:20.138Z,7.47
2019-06-08T18:58:53.492Z,6.78
2019-06-08T19:01:22.929Z,10.25
2019-06-08T19:03:53.005Z,9.73
2019-06-08T19:06:23.004Z,8.28
2019-06-08T19:08:54.408Z,7.33
2019-06-08T19:11:24.372Z,13.72
2019-06-08T19:13:54.378Z,10.75
2019-06-08T19:16:23.989Z,9.55
2019-06-08T19:18:53.660Z,10.53
2019-06-08T19:21:23.271Z,11.93
2019-06-08T19:23:52.886Z,9.63
2019-06-08T19:26:22.503Z,6.55
2019-06-08T19:28:54.180Z,8.90
2019-06-08T19:31:23.553Z,5.33
2019-06-08T19:33:53.617Z,11.55
2019-06-08T19:36:23.406Z,4.90
2019-06-08T19:38:54.739Z,8.30
2019-06-08T19:41:24.323Z,9.75
2019-06-08T19:43:54.926Z,10.43
2019-06-08T19:46:27.007Z,12.30
2019-06-08T19:48:58.770Z,7.50
2019-06-08T19:51:28.165Z,7.75
2019-06-08T19:53:58.435Z,12.05
2019-06-08T19:56:28.826Z,9.98
2019-06-08T19:59:04.040Z,13.30
2019-06-08T20:01:29.930Z,9.90
2019-06-08T20:04:01.319Z,11.93
2019-06-08T20:06:30.866Z,11.10
2019-06-08T20:09:00.873Z,8.53
2019-06-08T20:11:30.450Z,10.53
2019-06-08T20:14:00.459Z,6.95
2019-06-08T20:16:30.059Z,6.50
2019-06-08T20:18:59.736Z,9.50
2019-06-08T20:21:29.325Z,7.83
2019-06-08T20:23:58.911Z,8.63
2019-06-08T20:26:28.649Z,9.98
2019-06-08T20:29:12.408Z,8.25
2019-06-08T20:31:29.692Z,12.78
2019-06-08T20:33:59.644Z,7.17
2019-06-08T20:36:29.240Z,10.05
2019-06-08T20:38:59.278Z,7.30
2019-06-08T20:41:28.892Z,11.68
2019-06-08T20:43:58.501Z,11.88
2019-06-08T20:46:28.811Z,14.83
2019-06-08T20:48:58.582Z,6.62
2019-06-08T20:51:28.179Z,9.43
2019-06-08T20:53:58.283Z,9.28
2019-06-08T20:56:28.253Z,6.83
2019-06-08T20:58:57.865Z,11.40
2019-06-08T21:01:27.459Z,11.97
2019-06-08T21:03:57.230Z,11.78
2019-06-08T21:06:27.882Z,12.25
2019-06-08T21:08:59.786Z,12.05
2019-06-08T21:11:29.111Z,8.75
2019-06-08T21:13:58.704Z,11.75
2019-06-08T21:16:28.352Z,7.35
2019-06-08T21:18:58.208Z,12.25
2019-06-08T21:21:28.469Z,11.10
2019-06-08T21:24:01.014Z,9.40
2019-06-08T21:26:30.187Z,12.83
2019-06-08T21:29:00.515Z,7.28
2019-06-08T21:31:31.104Z,6.53
2019-06-08T21:34:01.076Z,14.03
2019-06-08T21:36:49.825Z,10.15
2019-06-08T21:39:18.924Z,12.55
2019-06-08T21:41:51.523Z,8.40
2019-06-08T21:44:19.858Z,11.38
2019-06-08T21:46:51.366Z,16.40
2019-06-08T21:49:21.021Z,10.03
2019-06-08T21:51:51.923Z,12.40
2019-06-08T21:54:22.292Z,12.82
2019-06-08T21:56:53.113Z,11.68
2019-06-08T21:59:23.207Z,11.30
2019-06-08T22:01:54.720Z,9.53
2019-06-08T22:04:24.588Z,8.08
2019-06-08T22:06:54.202Z,13.53
2019-06-08T22:09:23.783Z,9.55
2019-06-08T22:11:54.410Z,10.95
2019-06-08T22:14:24.175Z,9.20
2019-06-08T22:16:54.263Z,12.45
2019-06-08T22:19:27.410Z,9.40
2019-06-08T22:21:59.828Z,6.53
2019-06-08T22:24:27.880Z,10.78
2019-06-08T22:26:58.582Z,10.43
2019-06-08T22:29:28.897Z,13.38
2019-06-08T22:31:59.763Z,10.63
2019-06-08T22:34:31.553Z,7.03
2019-06-08T22:37:02.269Z,8.33
2019-06-08T22:39:31.957Z,7.90
2019-06-08T22:42:01.642Z,11.43
2019-06-08T22:44:31.250Z,9.13
2019-06-08T22:47:02.532Z,15.65
2019-06-08T22:49:32.180Z,12.30
2019-06-08T22:52:03.015Z,10.60
2019-06-08T22:54:33.129Z,10.90
2019-06-08T22:57:04.639Z,15.38
2019-06-08T22:59:34.155Z,9.40
2019-06-08T23:02:05.779Z,8.85
2019-06-08T23:04:35.225Z,8.70
2019-06-08T23:07:07.002Z,9.38
2019-06-08T23:09:37.321Z,7.12
2019-06-08T23:12:09.454Z,8.65
2019-06-08T23:14:38.388Z,10.58
2019-06-08T23:17:08.649Z,11.43
2019-06-08T23:19:38.833Z,10.03
2019-06-08T23:22:08.576Z,7.83
2019-06-08T23:24:38.454Z,4.33
2019-06-08T23:27:08.316Z,8.83
2019-06-08T23:29:38.322Z,11.70
2019-06-08T23:32:11.425Z,6.90
2019-06-08T23:34:39.290Z,6.17
2019-06-08T23:37:12.697Z,5.83
2019-06-08T23:39:40.305Z,10.88
2019-06-08T23:42:09.957Z,7.30
2019-06-08T23:44:39.648Z,19.70
2019-06-08T23:47:09.284Z,6.80
2019-06-08T23:49:38.902Z,8.25
2019-06-08T23:52:10.462Z,7.72
2019-06-08T23:54:39.824Z,11.20
2019-06-08T23:57:11.322Z,12.03
2019-06-08T23:59:40.756Z,6.80
